Climatologie pour Saint-Brevin les Pins
Jour • Résumé pour juin 16, 2017 Système :  Métrique    Anglais   Mixte
« - 1 jour
+ 1 jour »
Jour Semaine Mois Année Personnalisé
  Maximum : Minimum : Moyenne :
Température sous abri : 24.7 °C 12.3 °C 18.6 °C
Point de rosée : 17.4 °C 10.9 °C 13.7 °C
Humidité : 92 % 51 % 74 %
Vitesse du vent : 17.7 km/h 0.0 km/h 5.8 km/h
Rafale : 22.5 km/h - -
Direction :- - South
Pression : 1027.3 hPa 1022.9 hPa -
Précipitations : 0.0 mm    
Historical Graphs
 
 
Tableau de données pour juin 16, 2017
Heure Tempé Pt rosée Pression Vent Vitesse Rafale Humidité Taux pluie (/hr) Soleil
00:00 15.3 °C 13.6 °C 1022.9 hPa NW 3.2 km/h 9.7 km/h 90 % 0.0 mm 0 W/m2
00:05 15.3 °C 13.8 °C 1022.9 hPa WNW 6.4 km/h 8.0 km/h 91 % 0.0 mm 0 W/m2
00:10 15.2 °C 13.8 °C 1022.9 hPa NW 3.2 km/h 9.7 km/h 91 % 0.0 mm 0 W/m2
00:15 15.4 °C 13.9 °C 1022.9 hPa NW 4.8 km/h 9.7 km/h 91 % 0.0 mm 0 W/m2
00:20 15.3 °C 13.9 °C 1023.2 hPa West 3.2 km/h 8.0 km/h 91 % 0.0 mm 0 W/m2
00:25 15.3 °C 13.7 °C 1023.2 hPa WNW 8.0 km/h 8.0 km/h 90 % 0.0 mm 0 W/m2
00:30 15.4 °C 13.8 °C 1023.2 hPa NW 1.6 km/h 12.9 km/h 90 % 0.0 mm 0 W/m2
00:35 15.4 °C 13.8 °C 1023.6 hPa NW 4.8 km/h 12.9 km/h 90 % 0.0 mm 0 W/m2
00:40 15.4 °C 13.8 °C 1023.6 hPa West 1.6 km/h 12.9 km/h 90 % 0.0 mm 0 W/m2
00:45 15.3 °C 13.7 °C 1023.6 hPa WNW 3.2 km/h 11.3 km/h 90 % 0.0 mm 0 W/m2
00:50 15.2 °C 13.5 °C 1023.6 hPa WNW 1.6 km/h 9.7 km/h 90 % 0.0 mm 0 W/m2
00:55 14.9 °C 13.3 °C 1023.6 hPa Calm   9.7 km/h 90 % 0.0 mm 0 W/m2
01:00 14.7 °C 13.2 °C 1023.6 hPa NW 4.8 km/h 9.7 km/h 91 % 0.0 mm 0 W/m2
01:05 14.8 °C 13.5 °C 1023.6 hPa North 6.4 km/h 12.9 km/h 92 % 0.0 mm 0 W/m2
01:10 14.9 °C 13.4 °C 1023.9 hPa North 3.2 km/h 12.9 km/h 91 % 0.0 mm 0 W/m2
01:15 14.9 °C 13.7 °C 1023.9 hPa North 3.2 km/h 8.0 km/h 92 % 0.0 mm 0 W/m2
01:20 14.9 °C 13.7 °C 1023.6 hPa NNE 4.8 km/h 8.0 km/h 92 % 0.0 mm 0 W/m2
01:25 14.9 °C 13.6 °C 1023.6 hPa North 1.6 km/h 8.0 km/h 92 % 0.0 mm 0 W/m2
01:30 14.8 °C 13.5 °C 1023.9 hPa NNE 3.2 km/h 9.7 km/h 92 % 0.0 mm 0 W/m2
01:35 14.8 °C 13.5 °C 1023.9 hPa NE 1.6 km/h 9.7 km/h 92 % 0.0 mm 0 W/m2
01:40 14.8 °C 13.5 °C 1023.9 hPa Calm   9.7 km/h 92 % 0.0 mm 0 W/m2
01:45 14.8 °C 13.5 °C 1023.9 hPa North 1.6 km/h 9.7 km/h 92 % 0.0 mm 0 W/m2
01:50 14.7 °C 13.4 °C 1023.9 hPa NNE 3.2 km/h 9.7 km/h 92 % 0.0 mm 0 W/m2
01:55 14.6 °C 13.3 °C 1023.9 hPa NE 6.4 km/h 8.0 km/h 92 % 0.0 mm 0 W/m2
02:10 14.3 °C 12.8 °C 1024.3 hPa Calm   9.7 km/h 91 % 0.0 mm 0 W/m2
02:15 14.2 °C 12.8 °C 1024.3 hPa Calm   8.0 km/h 91 % 0.0 mm 0 W/m2
02:20 14.2 °C 12.7 °C 1024.3 hPa Calm   8.0 km/h 91 % 0.0 mm 0 W/m2
02:25 14.0 °C 12.4 °C 1024.3 hPa ENE 1.6 km/h 6.4 km/h 90 % 0.0 mm 0 W/m2
02:30 13.9 °C 12.3 °C 1024.3 hPa NE 1.6 km/h 6.4 km/h 90 % 0.0 mm 0 W/m2
02:35 13.7 °C 12.2 °C 1024.3 hPa NE 4.8 km/h 6.4 km/h 91 % 0.0 mm 0 W/m2
02:40 13.5 °C 12.1 °C 1024.6 hPa Calm   4.8 km/h 91 % 0.0 mm 0 W/m2
02:45 13.3 °C 11.9 °C 1024.6 hPa Calm   4.8 km/h 91 % 0.0 mm 0 W/m2
02:50 13.4 °C 12.1 °C 1024.6 hPa Calm   4.8 km/h 92 % 0.0 mm 0 W/m2
02:55 13.7 °C 12.2 °C 1024.6 hPa Calm   4.8 km/h 91 % 0.0 mm 0 W/m2
03:00 13.8 °C 12.4 °C 1024.6 hPa Calm   4.8 km/h 91 % 0.0 mm 0 W/m2
03:05 14.0 °C 12.4 °C 1024.6 hPa Calm   3.2 km/h 90 % 0.0 mm 0 W/m2
03:10 14.2 °C 12.4 °C 1024.6 hPa NE 1.6 km/h 3.2 km/h 89 % 0.0 mm 0 W/m2
03:15 14.2 °C 12.4 °C 1024.6 hPa Calm   4.8 km/h 89 % 0.0 mm 0 W/m2
03:20 14.3 °C 12.5 °C 1024.6 hPa NE 1.6 km/h 6.4 km/h 89 % 0.0 mm 0 W/m2
03:25 14.3 °C 12.5 °C 1024.6 hPa Calm   6.4 km/h 89 % 0.0 mm 0 W/m2
03:30 14.6 °C 12.6 °C 1024.6 hPa ENE 4.8 km/h 8.0 km/h 88 % 0.0 mm 0 W/m2
03:35 14.6 °C 12.5 °C 1024.6 hPa NNE 3.2 km/h 9.7 km/h 87 % 0.0 mm 0 W/m2
03:40 14.6 °C 12.5 °C 1024.9 hPa NNE 3.2 km/h 9.7 km/h 87 % 0.0 mm 0 W/m2
03:45 14.6 °C 12.5 °C 1024.6 hPa Calm   8.0 km/h 87 % 0.0 mm 0 W/m2
03:50 14.7 °C 12.5 °C 1024.9 hPa NNE 3.2 km/h 8.0 km/h 87 % 0.0 mm 0 W/m2
04:00 14.8 °C 12.5 °C 1024.6 hPa NNE 1.6 km/h 12.9 km/h 86 % 0.0 mm 0 W/m2
04:05 14.7 °C 12.4 °C 1024.6 hPa NNE 4.8 km/h 9.7 km/h 86 % 0.0 mm 0 W/m2
04:10 14.7 °C 12.2 °C 1024.6 hPa North 3.2 km/h 9.7 km/h 85 % 0.0 mm 0 W/m2
04:15 14.7 °C 12.2 °C 1024.6 hPa North 1.6 km/h 6.4 km/h 85 % 0.0 mm 0 W/m2
04:20 14.5 °C 12.2 °C 1024.6 hPa NE 3.2 km/h 8.0 km/h 86 % 0.0 mm 0 W/m2
04:25 14.5 °C 12.4 °C 1024.6 hPa NNE 3.2 km/h 9.7 km/h 87 % 0.0 mm 0 W/m2
04:30 14.4 °C 12.3 °C 1024.9 hPa North 4.8 km/h 9.7 km/h 87 % 0.0 mm 0 W/m2
04:35 14.4 °C 12.3 °C 1024.9 hPa NNW 3.2 km/h 8.0 km/h 87 % 0.0 mm 0 W/m2
04:40 14.3 °C 12.2 °C 1024.6 hPa NNE 1.6 km/h 8.0 km/h 87 % 0.0 mm 0 W/m2
04:45 14.0 °C 11.9 °C 1024.6 hPa North 6.4 km/h 11.3 km/h 87 % 0.0 mm 0 W/m2
04:50 13.8 °C 11.9 °C 1024.9 hPa NNE 4.8 km/h 11.3 km/h 88 % 0.0 mm 0 W/m2
05:00 13.4 °C 11.3 °C 1024.9 hPa North 11.3 km/h 12.9 km/h 87 % 0.0 mm 0 W/m2
05:05 13.2 °C 11.1 °C 1024.9 hPa Calm   12.9 km/h 87 % 0.0 mm 0 W/m2
05:10 13.1 °C 11.1 °C 1024.9 hPa North 6.4 km/h 11.3 km/h 88 % 0.0 mm 0 W/m2
05:15 13.0 °C 10.9 °C 1024.9 hPa North 3.2 km/h 11.3 km/h 87 % 0.0 mm 0 W/m2
05:20 13.0 °C 11.1 °C 1024.9 hPa NE 12.9 km/h 12.9 km/h 88 % 0.0 mm 0 W/m2
05:25 13.1 °C 11.1 °C 1024.9 hPa NNE 4.8 km/h 14.5 km/h 88 % 0.0 mm 0 W/m2
05:30 12.9 °C 11.0 °C 1024.9 hPa NNE 3.2 km/h 14.5 km/h 88 % 0.0 mm 0 W/m2
05:40 12.8 °C 11.1 °C 1024.9 hPa NNE 4.8 km/h 12.9 km/h 89 % 0.0 mm 0 W/m2
05:45 12.8 °C 11.1 °C 1024.9 hPa North 3.2 km/h 11.3 km/h 89 % 0.0 mm 0 W/m2
05:50 12.9 °C 11.1 °C 1024.9 hPa North 8.0 km/h 11.3 km/h 89 % 0.0 mm 0 W/m2
05:55 12.7 °C 11.0 °C 1024.9 hPa NW 1.6 km/h 9.7 km/h 89 % 0.0 mm 0 W/m2
06:00 12.7 °C 11.1 °C 1024.9 hPa NNE 6.4 km/h 12.9 km/h 90 % 0.0 mm 0 W/m2
06:05 12.6 °C 11.0 °C 1024.9 hPa NNE 3.2 km/h 12.9 km/h 90 % 0.0 mm 0 W/m2
06:10 12.6 °C 11.0 °C 1025.3 hPa North 8.0 km/h 12.9 km/h 90 % 0.0 mm 0 W/m2
06:15 12.6 °C 11.0 °C 1025.3 hPa North 1.6 km/h 12.9 km/h 90 % 0.0 mm 0 W/m2
06:20 12.6 °C 11.0 °C 1025.3 hPa NNW 1.6 km/h 11.3 km/h 90 % 0.0 mm 5 W/m2
06:25 12.5 °C 10.9 °C 1025.3 hPa Calm   9.7 km/h 90 % 0.0 mm 7 W/m2
06:30 12.3 °C 10.9 °C 1025.3 hPa North 3.2 km/h 9.7 km/h 91 % 0.0 mm 11 W/m2
06:35 12.4 °C 11.0 °C 1025.3 hPa NNW 3.2 km/h 9.7 km/h 91 % 0.0 mm 12 W/m2
06:40 12.3 °C 10.9 °C 1025.3 hPa NNE 3.2 km/h 9.7 km/h 91 % 0.0 mm 16 W/m2
06:45 12.4 °C 11.2 °C 1025.3 hPa NNE 3.2 km/h 9.7 km/h 92 % 0.0 mm 18 W/m2
06:50 12.5 °C 11.1 °C 1025.3 hPa NNE 6.4 km/h 9.7 km/h 91 % 0.0 mm 19 W/m2
06:55 12.5 °C 11.1 °C 1025.3 hPa NW 3.2 km/h 8.0 km/h 91 % 0.0 mm 21 W/m2
07:00 12.5 °C 11.1 °C 1025.6 hPa North 1.6 km/h 8.0 km/h 91 % 0.0 mm 23 W/m2
07:05 12.5 °C 11.2 °C 1025.6 hPa Calm   8.0 km/h 92 % 0.0 mm 25 W/m2
07:10 12.5 °C 11.2 °C 1025.6 hPa North 4.8 km/h 9.7 km/h 92 % 0.0 mm 26 W/m2
07:15 12.8 °C 11.5 °C 1025.6 hPa NE 1.6 km/h 11.3 km/h 92 % 0.0 mm 28 W/m2
07:25 12.9 °C 11.5 °C 1026.0 hPa North 12.9 km/h 12.9 km/h 91 % 0.0 mm 32 W/m2
07:30 13.1 °C 11.5 °C 1026.0 hPa North 6.4 km/h 12.9 km/h 90 % 0.0 mm 33 W/m2
07:35 13.2 °C 11.6 °C 1026.0 hPa North 3.2 km/h 12.9 km/h 90 % 0.0 mm 35 W/m2
07:40 13.4 °C 11.8 °C 1026.0 hPa North 1.6 km/h 11.3 km/h 90 % 0.0 mm 37 W/m2
07:45 13.6 °C 11.8 °C 1026.0 hPa North 8.0 km/h 11.3 km/h 89 % 0.0 mm 39 W/m2
07:50 13.7 °C 11.9 °C 1026.0 hPa North 9.7 km/h 12.9 km/h 89 % 0.0 mm 183 W/m2
07:55 13.9 °C 12.1 °C 1026.3 hPa NW 3.2 km/h 14.5 km/h 89 % 0.0 mm 199 W/m2
08:00 13.9 °C 12.0 °C 1026.3 hPa NNE 12.9 km/h 17.7 km/h 88 % 0.0 mm 213 W/m2
08:05 14.2 °C 12.0 °C 1026.3 hPa Calm   17.7 km/h 87 % 0.0 mm 227 W/m2
08:10 14.3 °C 12.1 °C 1026.3 hPa North 6.4 km/h 14.5 km/h 87 % 0.0 mm 243 W/m2
08:20 14.6 °C 12.2 °C 1026.3 hPa NE 4.8 km/h 14.5 km/h 86 % 0.0 mm 269 W/m2
08:25 14.6 °C 12.1 °C 1026.3 hPa NNE 9.7 km/h 20.9 km/h 85 % 0.0 mm 287 W/m2
08:30 14.7 °C 12.2 °C 1026.6 hPa North 6.4 km/h 20.9 km/h 85 % 0.0 mm 301 W/m2
08:35 15.0 °C 12.5 °C 1026.6 hPa NNE 3.2 km/h 17.7 km/h 85 % 0.0 mm 311 W/m2
08:40 15.1 °C 12.2 °C 1026.6 hPa North 11.3 km/h 14.5 km/h 83 % 0.0 mm 327 W/m2
08:45 15.1 °C 12.2 °C 1026.6 hPa NNW 4.8 km/h 14.5 km/h 83 % 0.0 mm 343 W/m2
08:50 15.2 °C 12.3 °C 1026.6 hPa NE 1.6 km/h 14.5 km/h 83 % 0.0 mm 357 W/m2
08:55 15.4 °C 12.6 °C 1026.6 hPa NNW 3.2 km/h 14.5 km/h 83 % 0.0 mm 373 W/m2
09:00 15.6 °C 12.5 °C 1026.6 hPa NNE 8.0 km/h 14.5 km/h 82 % 0.0 mm 387 W/m2
09:05 15.7 °C 12.7 °C 1026.6 hPa NE 9.7 km/h 14.5 km/h 82 % 0.0 mm 399 W/m2
09:10 15.9 °C 12.9 °C 1026.6 hPa NE 8.0 km/h 12.9 km/h 82 % 0.0 mm 411 W/m2
09:15 16.0 °C 12.7 °C 1026.6 hPa NNE 9.7 km/h 14.5 km/h 81 % 0.0 mm 429 W/m2
09:20 15.9 °C 12.5 °C 1026.6 hPa NNE 3.2 km/h 14.5 km/h 80 % 0.0 mm 438 W/m2
09:25 16.3 °C 12.9 °C 1026.6 hPa ENE 6.4 km/h 14.5 km/h 80 % 0.0 mm 446 W/m2
09:30 16.7 °C 13.1 °C 1026.6 hPa North 4.8 km/h 12.9 km/h 79 % 0.0 mm 475 W/m2
09:35 16.8 °C 13.0 °C 1026.6 hPa North 4.8 km/h 12.9 km/h 78 % 0.0 mm 480 W/m2
09:40 17.1 °C 13.0 °C 1026.6 hPa NW 3.2 km/h 11.3 km/h 77 % 0.0 mm 497 W/m2
09:45 17.2 °C 12.9 °C 1026.6 hPa ENE 8.0 km/h 14.5 km/h 76 % 0.0 mm 508 W/m2
09:50 17.5 °C 13.4 °C 1026.6 hPa ENE 12.9 km/h 16.1 km/h 77 % 0.0 mm 512 W/m2
09:55 17.6 °C 12.7 °C 1026.6 hPa ENE 6.4 km/h 16.1 km/h 73 % 0.0 mm 533 W/m2
10:00 17.6 °C 13.1 °C 1026.6 hPa NNE 4.8 km/h 16.1 km/h 75 % 0.0 mm 547 W/m2
10:05 17.6 °C 12.4 °C 1026.6 hPa Calm   16.1 km/h 72 % 0.0 mm 564 W/m2
10:10 17.8 °C 13.1 °C 1026.6 hPa NNW 4.8 km/h 16.1 km/h 74 % 0.0 mm 575 W/m2
10:15 18.1 °C 13.2 °C 1026.6 hPa NNE 9.7 km/h 17.7 km/h 73 % 0.0 mm 591 W/m2
10:20 18.1 °C 12.7 °C 1026.6 hPa ENE 12.9 km/h 17.7 km/h 71 % 0.0 mm 598 W/m2
10:25 18.2 °C 12.9 °C 1026.6 hPa NE 3.2 km/h 17.7 km/h 71 % 0.0 mm 612 W/m2
10:30 18.2 °C 12.2 °C 1026.6 hPa NNE 9.7 km/h 17.7 km/h 68 % 0.0 mm 633 W/m2
10:35 18.7 °C 12.9 °C 1026.6 hPa NE 9.7 km/h 17.7 km/h 69 % 0.0 mm 640 W/m2
10:40 18.6 °C 12.1 °C 1027.0 hPa East 11.3 km/h 19.3 km/h 66 % 0.0 mm 654 W/m2
10:45 19.1 °C 13.1 °C 1027.0 hPa ENE 6.4 km/h 19.3 km/h 68 % 0.0 mm 670 W/m2
10:50 19.2 °C 12.7 °C 1027.0 hPa NNE 3.2 km/h 19.3 km/h 66 % 0.0 mm 673 W/m2
10:55 19.3 °C 12.8 °C 1027.0 hPa ENE 4.8 km/h 19.3 km/h 66 % 0.0 mm 689 W/m2
11:00 19.2 °C 12.9 °C 1027.0 hPa NNE 3.2 km/h 12.9 km/h 67 % 0.0 mm 696 W/m2
11:05 19.5 °C 13.2 °C 1027.0 hPa North 6.4 km/h 12.9 km/h 67 % 0.0 mm 712 W/m2
11:10 19.8 °C 12.8 °C 1027.0 hPa East 9.7 km/h 16.1 km/h 64 % 0.0 mm 724 W/m2
11:15 19.8 °C 12.0 °C 1027.0 hPa North 9.7 km/h 16.1 km/h 61 % 0.0 mm 735 W/m2
11:20 19.9 °C 12.7 °C 1027.0 hPa East 11.3 km/h 14.5 km/h 63 % 0.0 mm 745 W/m2
11:25 20.1 °C 12.8 °C 1027.0 hPa ENE 8.0 km/h 14.5 km/h 63 % 0.0 mm 754 W/m2
11:30 20.2 °C 12.9 °C 1027.0 hPa ENE 4.8 km/h 14.5 km/h 63 % 0.0 mm 759 W/m2
11:35 21.0 °C 13.2 °C 1026.6 hPa NNE 4.8 km/h 14.5 km/h 61 % 0.0 mm 768 W/m2
11:40 20.5 °C 12.0 °C 1027.0 hPa East 3.2 km/h 11.3 km/h 58 % 0.0 mm 779 W/m2
11:45 20.6 °C 12.5 °C 1026.6 hPa NNE 8.0 km/h 12.9 km/h 60 % 0.0 mm 786 W/m2
11:50 20.7 °C 12.1 °C 1026.6 hPa ENE 6.4 km/h 16.1 km/h 58 % 0.0 mm 800 W/m2
11:55 20.8 °C 12.3 °C 1026.6 hPa North 14.5 km/h 16.1 km/h 58 % 0.0 mm 812 W/m2
12:00 20.8 °C 12.2 °C 1026.6 hPa NNW 6.4 km/h 16.1 km/h 58 % 0.0 mm 814 W/m2
12:05 21.1 °C 12.5 °C 1026.6 hPa NE 8.0 km/h 14.5 km/h 58 % 0.0 mm 817 W/m2
12:10 21.0 °C 12.7 °C 1026.6 hPa ENE 8.0 km/h 17.7 km/h 59 % 0.0 mm 826 W/m2
12:15 21.3 °C 12.2 °C 1026.6 hPa ENE 8.0 km/h 17.7 km/h 56 % 0.0 mm 831 W/m2
12:20 21.2 °C 11.5 °C 1026.6 hPa NE 8.0 km/h 19.3 km/h 54 % 0.0 mm 838 W/m2
12:25 21.6 °C 12.5 °C 1026.6 hPa NE 4.8 km/h 19.3 km/h 56 % 0.0 mm 847 W/m2
12:30 21.8 °C 12.9 °C 1026.6 hPa North 6.4 km/h 16.1 km/h 57 % 0.0 mm 854 W/m2
12:35 21.8 °C 12.1 °C 1026.6 hPa East 4.8 km/h 16.1 km/h 54 % 0.0 mm 860 W/m2
12:40 21.9 °C 13.6 °C 1026.6 hPa North 12.9 km/h 16.1 km/h 59 % 0.0 mm 868 W/m2
12:50 21.8 °C 13.1 °C 1026.6 hPa NNE 4.8 km/h 17.7 km/h 58 % 0.0 mm 867 W/m2
12:55 22.6 °C 13.6 °C 1026.6 hPa Calm   17.7 km/h 57 % 0.0 mm 882 W/m2
13:00 22.8 °C 14.4 °C 1026.6 hPa North 4.8 km/h 8.0 km/h 59 % 0.0 mm 886 W/m2
13:05 23.1 °C 13.6 °C 1026.6 hPa NW 3.2 km/h 20.9 km/h 55 % 0.0 mm 889 W/m2
13:10 22.6 °C 12.5 °C 1026.6 hPa ENE 4.8 km/h 20.9 km/h 53 % 0.0 mm 889 W/m2
13:15 22.7 °C 13.2 °C 1026.6 hPa North 9.7 km/h 16.1 km/h 55 % 0.0 mm 893 W/m2
13:20 22.9 °C 13.6 °C 1026.6 hPa WNW 3.2 km/h 16.1 km/h 56 % 0.0 mm 896 W/m2
13:25 23.4 °C 13.0 °C 1026.6 hPa North 9.7 km/h 14.5 km/h 52 % 0.0 mm 900 W/m2
13:30 23.0 °C 13.2 °C 1026.6 hPa NE 3.2 km/h 16.1 km/h 54 % 0.0 mm 896 W/m2
13:35 23.8 °C 15.3 °C 1026.6 hPa NNW 16.1 km/h 16.1 km/h 59 % 0.0 mm 895 W/m2
13:40 23.8 °C 13.9 °C 1026.6 hPa NW 11.3 km/h 19.3 km/h 54 % 0.0 mm 898 W/m2
13:45 23.4 °C 13.0 °C 1027.0 hPa North 3.2 km/h 19.3 km/h 52 % 0.0 mm 898 W/m2
13:50 23.9 °C 14.3 °C 1027.0 hPa WNW 3.2 km/h 16.1 km/h 55 % 0.0 mm 900 W/m2
13:55 24.1 °C 14.2 °C 1026.6 hPa NNE 16.1 km/h 16.1 km/h 54 % 0.0 mm 898 W/m2
14:05 23.6 °C 13.8 °C 1026.6 hPa NNE 6.4 km/h 19.3 km/h 54 % 0.0 mm 902 W/m2
14:15 23.9 °C 13.2 °C 1026.6 hPa WNW 8.0 km/h 12.9 km/h 51 % 0.0 mm 900 W/m2
14:20 24.7 °C 14.5 °C 1026.6 hPa NW 6.4 km/h 14.5 km/h 53 % 0.0 mm 896 W/m2
14:25 24.4 °C 13.6 °C 1026.6 hPa NNE 11.3 km/h 14.5 km/h 51 % 0.0 mm 895 W/m2
14:30 24.4 °C 13.9 °C 1026.6 hPa Calm   14.5 km/h 52 % 0.0 mm 889 W/m2
14:35 24.3 °C 15.5 °C 1026.6 hPa WNW 9.7 km/h 14.5 km/h 58 % 0.0 mm 884 W/m2
14:40 24.0 °C 14.7 °C 1026.6 hPa NW 9.7 km/h 17.7 km/h 56 % 0.0 mm 881 W/m2
14:45 23.9 °C 15.2 °C 1026.6 hPa West 3.2 km/h 17.7 km/h 58 % 0.0 mm 881 W/m2
14:50 23.7 °C 15.0 °C 1026.6 hPa NW 3.2 km/h 16.1 km/h 58 % 0.0 mm 886 W/m2
14:55 23.5 °C 15.0 °C 1026.3 hPa West 11.3 km/h 16.1 km/h 59 % 0.0 mm 886 W/m2
15:00 23.2 °C 15.0 °C 1026.6 hPa NW 9.7 km/h 16.1 km/h 60 % 0.0 mm 881 W/m2
15:05 23.6 °C 15.1 °C 1026.6 hPa West 4.8 km/h 16.1 km/h 59 % 0.0 mm 881 W/m2
15:10 23.3 °C 14.5 °C 1026.3 hPa WSW 8.0 km/h 14.5 km/h 58 % 0.0 mm 875 W/m2
15:15 23.7 °C 15.0 °C 1026.3 hPa West 6.4 km/h 14.5 km/h 58 % 0.0 mm 870 W/m2
15:20 22.9 °C 15.0 °C 1026.3 hPa NW 9.7 km/h 16.1 km/h 61 % 0.0 mm 867 W/m2
15:25 22.8 °C 14.9 °C 1026.3 hPa NW 11.3 km/h 16.1 km/h 61 % 0.0 mm 861 W/m2
15:30 22.7 °C 14.8 °C 1026.3 hPa West 11.3 km/h 16.1 km/h 61 % 0.0 mm 856 W/m2
15:35 22.7 °C 14.8 °C 1026.3 hPa NW 6.4 km/h 16.1 km/h 61 % 0.0 mm 846 W/m2
15:40 22.8 °C 15.6 °C 1026.3 hPa West 9.7 km/h 16.1 km/h 64 % 0.0 mm 846 W/m2
15:45 22.3 °C 14.9 °C 1026.3 hPa NW 9.7 km/h 20.9 km/h 63 % 0.0 mm 833 W/m2
15:50 22.7 °C 15.6 °C 1026.3 hPa West 8.0 km/h 20.9 km/h 64 % 0.0 mm 824 W/m2
15:55 22.9 °C 15.7 °C 1026.3 hPa West 6.4 km/h 14.5 km/h 64 % 0.0 mm 817 W/m2
16:00 22.4 °C 15.2 °C 1026.3 hPa WNW 8.0 km/h 17.7 km/h 64 % 0.0 mm 812 W/m2
16:05 22.6 °C 15.4 °C 1026.3 hPa West 9.7 km/h 19.3 km/h 64 % 0.0 mm 807 W/m2
16:10 22.3 °C 15.7 °C 1026.3 hPa West 9.7 km/h 19.3 km/h 66 % 0.0 mm 795 W/m2
16:15 22.8 °C 15.9 °C 1026.3 hPa West 9.7 km/h 19.3 km/h 65 % 0.0 mm 784 W/m2
16:20 22.2 °C 15.6 °C 1026.3 hPa West 4.8 km/h 14.5 km/h 66 % 0.0 mm 779 W/m2
16:25 22.6 °C 15.4 °C 1026.3 hPa NW 12.9 km/h 19.3 km/h 64 % 0.0 mm 768 W/m2
16:30 22.4 °C 15.5 °C 1026.3 hPa West 12.9 km/h 19.3 km/h 65 % 0.0 mm 761 W/m2
16:35 22.4 °C 15.7 °C 1026.0 hPa West 14.5 km/h 16.1 km/h 66 % 0.0 mm 752 W/m2
16:40 22.4 °C 16.0 °C 1026.0 hPa WSW 14.5 km/h 16.1 km/h 67 % 0.0 mm 742 W/m2
16:45 22.4 °C 16.2 °C 1026.3 hPa WSW 9.7 km/h 19.3 km/h 68 % 0.0 mm 735 W/m2
16:50 23.2 °C 16.5 °C 1026.0 hPa West 11.3 km/h 19.3 km/h 66 % 0.0 mm 721 W/m2
16:55 22.8 °C 16.1 °C 1026.0 hPa West 9.7 km/h 19.3 km/h 66 % 0.0 mm 712 W/m2
17:00 22.7 °C 16.3 °C 1026.0 hPa WNW 4.8 km/h 19.3 km/h 67 % 0.0 mm 680 W/m2
17:05 22.8 °C 16.1 °C 1026.0 hPa West 11.3 km/h 17.7 km/h 66 % 0.0 mm 687 W/m2
17:10 22.3 °C 16.1 °C 1026.0 hPa West 8.0 km/h 19.3 km/h 68 % 0.0 mm 677 W/m2
17:15 22.1 °C 16.2 °C 1026.0 hPa NW 6.4 km/h 22.5 km/h 69 % 0.0 mm 664 W/m2
17:20 21.8 °C 15.8 °C 1026.0 hPa West 8.0 km/h 22.5 km/h 69 % 0.0 mm 657 W/m2
17:25 21.8 °C 16.1 °C 1026.0 hPa West 11.3 km/h 20.9 km/h 70 % 0.0 mm 643 W/m2
17:30 21.5 °C 16.0 °C 1026.0 hPa WNW 17.7 km/h 22.5 km/h 71 % 0.0 mm 624 W/m2
17:35 21.7 °C 16.2 °C 1026.3 hPa WNW 9.7 km/h 22.5 km/h 71 % 0.0 mm 617 W/m2
17:40 22.1 °C 16.6 °C 1026.0 hPa WSW 8.0 km/h 22.5 km/h 71 % 0.0 mm 608 W/m2
17:45 22.3 °C 16.5 °C 1026.0 hPa West 6.4 km/h 17.7 km/h 70 % 0.0 mm 599 W/m2
17:50 22.2 °C 16.7 °C 1026.0 hPa West 6.4 km/h 12.9 km/h 71 % 0.0 mm 564 W/m2
17:55 22.5 °C 16.8 °C 1026.0 hPa WNW 4.8 km/h 14.5 km/h 70 % 0.0 mm 570 W/m2
18:00 21.9 °C 16.4 °C 1026.0 hPa West 9.7 km/h 16.1 km/h 71 % 0.0 mm 552 W/m2
18:05 21.6 °C 16.1 °C 1026.0 hPa WNW 8.0 km/h 17.7 km/h 71 % 0.0 mm 545 W/m2
18:10 21.8 °C 16.5 °C 1026.0 hPa WNW 1.6 km/h 17.7 km/h 72 % 0.0 mm 522 W/m2
18:15 21.8 °C 16.5 °C 1026.0 hPa SW 12.9 km/h 17.7 km/h 72 % 0.0 mm 517 W/m2
18:20 21.9 °C 16.7 °C 1026.0 hPa West 6.4 km/h 17.7 km/h 72 % 0.0 mm 506 W/m2
18:25 22.0 °C 16.7 °C 1026.0 hPa WSW 12.9 km/h 16.1 km/h 72 % 0.0 mm 489 W/m2
18:30 21.8 °C 16.5 °C 1026.0 hPa WNW 6.4 km/h 16.1 km/h 72 % 0.0 mm 478 W/m2
18:35 21.9 °C 17.1 °C 1026.0 hPa WSW 6.4 km/h 16.1 km/h 74 % 0.0 mm 464 W/m2
18:40 22.4 °C 17.4 °C 1026.0 hPa WSW 11.3 km/h 14.5 km/h 73 % 0.0 mm 450 W/m2
18:45 22.0 °C 16.7 °C 1026.0 hPa West 1.6 km/h 14.5 km/h 72 % 0.0 mm 436 W/m2
18:50 22.2 °C 16.9 °C 1026.0 hPa West 12.9 km/h 14.5 km/h 72 % 0.0 mm 424 W/m2
18:55 22.0 °C 16.7 °C 1026.0 hPa WNW 4.8 km/h 12.9 km/h 72 % 0.0 mm 411 W/m2
19:00 22.2 °C 16.9 °C 1025.6 hPa SSW 8.0 km/h 12.9 km/h 72 % 0.0 mm 399 W/m2
19:05 22.5 °C 17.0 °C 1026.0 hPa WNW 11.3 km/h 12.9 km/h 71 % 0.0 mm 385 W/m2
19:10 22.1 °C 17.0 °C 1026.0 hPa West 11.3 km/h 17.7 km/h 73 % 0.0 mm 369 W/m2
19:15 22.1 °C 17.0 °C 1026.0 hPa West 6.4 km/h 17.7 km/h 73 % 0.0 mm 353 W/m2
19:20 21.8 °C 16.8 °C 1026.0 hPa WSW 3.2 km/h 16.1 km/h 73 % 0.0 mm 341 W/m2
19:25 22.1 °C 16.8 °C 1026.0 hPa WSW 1.6 km/h 16.1 km/h 72 % 0.0 mm 327 W/m2
19:30 22.2 °C 16.9 °C 1026.0 hPa West 4.8 km/h 12.9 km/h 72 % 0.0 mm 315 W/m2
19:35 22.1 °C 17.0 °C 1026.0 hPa West 4.8 km/h 14.5 km/h 73 % 0.0 mm 292 W/m2
19:40 22.2 °C 16.9 °C 1026.0 hPa SW 4.8 km/h 14.5 km/h 72 % 0.0 mm 262 W/m2
19:45 22.3 °C 17.0 °C 1026.0 hPa WSW 4.8 km/h 9.7 km/h 72 % 0.0 mm 234 W/m2
19:50 22.2 °C 16.9 °C 1026.0 hPa Calm   9.7 km/h 72 % 0.0 mm 213 W/m2
19:55 22.3 °C 16.8 °C 1025.6 hPa WSW 3.2 km/h 11.3 km/h 71 % 0.0 mm 197 W/m2
20:00 22.4 °C 17.1 °C 1025.6 hPa Calm   11.3 km/h 72 % 0.0 mm 190 W/m2
20:05 22.6 °C 17.0 °C 1025.6 hPa West 1.6 km/h 8.0 km/h 71 % 0.0 mm 183 W/m2
20:10 22.6 °C 16.6 °C 1025.6 hPa WSW 6.4 km/h 8.0 km/h 69 % 0.0 mm 178 W/m2
20:15 22.7 °C 16.9 °C 1025.6 hPa West 6.4 km/h 8.0 km/h 70 % 0.0 mm 158 W/m2
20:20 22.6 °C 16.6 °C 1025.6 hPa West 4.8 km/h 8.0 km/h 69 % 0.0 mm 135 W/m2
20:25 22.3 °C 16.1 °C 1025.6 hPa North 1.6 km/h 8.0 km/h 68 % 0.0 mm 120 W/m2
20:30 22.7 °C 16.2 °C 1025.6 hPa NNW 3.2 km/h 9.7 km/h 67 % 0.0 mm 111 W/m2
20:35 23.0 °C 14.8 °C 1026.0 hPa North 8.0 km/h 16.1 km/h 60 % 0.0 mm 100 W/m2
20:40 22.9 °C 15.0 °C 1026.0 hPa NNE 8.0 km/h 16.1 km/h 61 % 0.0 mm 42 W/m2
20:45 22.7 °C 14.8 °C 1025.6 hPa NNE 11.3 km/h 16.1 km/h 61 % 0.0 mm 35 W/m2
20:50 22.7 °C 14.5 °C 1026.0 hPa ENE 8.0 km/h 16.1 km/h 60 % 0.0 mm 30 W/m2
20:55 22.7 °C 14.2 °C 1026.0 hPa Calm   14.5 km/h 59 % 0.0 mm 39 W/m2
21:00 22.4 °C 14.5 °C 1026.0 hPa NNE 4.8 km/h 12.9 km/h 61 % 0.0 mm 28 W/m2
21:05 22.4 °C 14.3 °C 1026.0 hPa ENE 3.2 km/h 14.5 km/h 60 % 0.0 mm 25 W/m2
21:10 22.4 °C 14.5 °C 1026.0 hPa NNE 8.0 km/h 14.5 km/h 61 % 0.0 mm 23 W/m2
21:15 22.2 °C 14.3 °C 1026.0 hPa North 9.7 km/h 16.1 km/h 61 % 0.0 mm 21 W/m2
21:20 22.1 °C 14.2 °C 1026.0 hPa NNE 3.2 km/h 16.1 km/h 61 % 0.0 mm 19 W/m2
21:25 21.9 °C 14.1 °C 1026.0 hPa North 4.8 km/h 12.9 km/h 61 % 0.0 mm 18 W/m2
21:30 21.9 °C 14.0 °C 1026.0 hPa NNE 8.0 km/h 12.9 km/h 61 % 0.0 mm 16 W/m2
21:40 21.5 °C 14.2 °C 1026.0 hPa NE 8.0 km/h 14.5 km/h 63 % 0.0 mm 12 W/m2
21:45 21.3 °C 14.2 °C 1026.0 hPa NNE 4.8 km/h 11.3 km/h 64 % 0.0 mm 11 W/m2
21:50 21.3 °C 14.4 °C 1026.0 hPa NE 3.2 km/h 11.3 km/h 65 % 0.0 mm 9 W/m2
21:55 20.9 °C 14.4 °C 1026.0 hPa NE 3.2 km/h 14.5 km/h 66 % 0.0 mm 7 W/m2
22:00 20.8 °C 14.2 °C 1026.3 hPa NE 1.6 km/h 14.5 km/h 66 % 0.0 mm 5 W/m2
22:05 20.5 °C 14.4 °C 1026.3 hPa NE 9.7 km/h 12.9 km/h 68 % 0.0 mm 0 W/m2
22:10 20.4 °C 14.6 °C 1026.3 hPa North 4.8 km/h 14.5 km/h 69 % 0.0 mm 0 W/m2
22:15 20.4 °C 14.3 °C 1026.3 hPa NE 12.9 km/h 19.3 km/h 68 % 0.0 mm 0 W/m2
22:20 20.4 °C 14.1 °C 1026.3 hPa NE 6.4 km/h 19.3 km/h 67 % 0.0 mm 0 W/m2
22:25 20.5 °C 14.2 °C 1026.6 hPa NNE 6.4 km/h 16.1 km/h 67 % 0.0 mm 0 W/m2
22:30 20.3 °C 14.0 °C 1026.6 hPa North 1.6 km/h 12.9 km/h 67 % 0.0 mm 0 W/m2
22:35 20.2 °C 14.1 °C 1026.6 hPa NE 4.8 km/h 14.5 km/h 68 % 0.0 mm 0 W/m2
22:40 20.0 °C 14.1 °C 1026.6 hPa Calm   14.5 km/h 69 % 0.0 mm 0 W/m2
22:45 19.9 °C 14.0 °C 1026.6 hPa North 1.6 km/h 14.5 km/h 69 % 0.0 mm 0 W/m2
22:50 19.8 °C 13.7 °C 1027.0 hPa NNE 6.4 km/h 16.1 km/h 68 % 0.0 mm 0 W/m2
22:55 19.7 °C 13.8 °C 1027.0 hPa NNE 11.3 km/h 16.1 km/h 69 % 0.0 mm 0 W/m2
23:00 19.5 °C 13.7 °C 1027.0 hPa NNE 3.2 km/h 16.1 km/h 69 % 0.0 mm 0 W/m2
23:05 19.4 °C 13.6 °C 1027.0 hPa ENE 3.2 km/h 11.3 km/h 69 % 0.0 mm 0 W/m2
23:10 19.2 °C 13.6 °C 1027.0 hPa NE 3.2 km/h 11.3 km/h 70 % 0.0 mm 0 W/m2
23:15 18.9 °C 13.6 °C 1027.0 hPa NE 6.4 km/h 11.3 km/h 71 % 0.0 mm 0 W/m2
23:20 18.8 °C 13.5 °C 1027.0 hPa NE 6.4 km/h 12.9 km/h 71 % 0.0 mm 0 W/m2
23:25 18.7 °C 13.6 °C 1027.0 hPa Calm   14.5 km/h 72 % 0.0 mm 0 W/m2
23:30 18.6 °C 13.2 °C 1027.0 hPa NNE 8.0 km/h 20.9 km/h 71 % 0.0 mm 0 W/m2
23:35 18.7 °C 13.3 °C 1027.0 hPa North 8.0 km/h 20.9 km/h 71 % 0.0 mm 0 W/m2
23:40 18.6 °C 13.2 °C 1027.0 hPa NE 1.6 km/h 17.7 km/h 71 % 0.0 mm 0 W/m2
23:45 18.5 °C 12.9 °C 1027.3 hPa NNE 6.4 km/h 19.3 km/h 70 % 0.0 mm 0 W/m2
23:50 18.4 °C 12.7 °C 1027.3 hPa NNE 8.0 km/h 19.3 km/h 69 % 0.0 mm 0 W/m2
23:55 18.4 °C 12.4 °C 1027.3 hPa NNE 11.3 km/h 20.9 km/h 68 % 0.0 mm 0 W/m2
Avec l'autorisation de Weather Underground - 1.75 mb